Time;durP1;ratioP1;P1;durP2;ratioP2;P2;SDS_P1;SDS_P2;PMS_P1;PMS_P2;Temp;Humidity;BMP_temperature;BMP_pressure;BME280_temperature;BME280_humidity;BME280_pressure;Samples;Min_cycle;Max_cycle;Signal;HPM_P1;HPM_P2
2023/07/27 00:00:52;;;;;;;8.57;4.22;;;;;;;18.74;64.38;100915.72;5032176;28;20025;-83
2023/07/27 00:03:18;;;;;;;6.45;4.82;;;;;;;18.81;64.58;100919.66;5022741;28;20071;-83
2023/07/27 00:05:43;;;;;;;6.85;4.57;;;;;;;18.82;65.22;100910.66;5022539;28;20077;-83
2023/07/27 00:08:08;;;;;;;5.72;4.82;;;;;;;18.72;64.46;100912.31;5029035;28;20034;-83
2023/07/27 00:10:34;;;;;;;9.50;4.60;;;;;;;18.61;65.28;100910.38;5032394;28;20020;-83
2023/07/27 00:12:59;;;;;;;8.35;4.88;;;;;;;18.56;65.63;100906.34;5021886;28;20468;-83
2023/07/27 00:15:24;;;;;;;7.28;4.60;;;;;;;18.50;66.00;100904.06;5026229;28;20022;-83
2023/07/27 00:17:50;;;;;;;7.53;4.10;;;;;;;18.39;66.06;100907.53;5028399;28;20474;-83
2023/07/27 00:20:15;;;;;;;6.60;4.50;;;;;;;18.43;67.95;100897.47;5020807;28;20117;-84
2023/07/27 00:22:40;;;;;;;7.97;4.53;;;;;;;18.51;67.26;100900.44;5028796;28;20072;-84
2023/07/27 00:25:06;;;;;;;6.68;4.47;;;;;;;18.56;66.19;100890.28;5031776;28;20481;-83
2023/07/27 00:27:31;;;;;;;6.93;4.30;;;;;;;18.55;67.43;100893.88;5023893;28;20083;-84
2023/07/27 00:29:56;;;;;;;7.35;4.43;;;;;;;18.44;67.69;100883.13;5023440;28;20017;-84
2023/07/27 00:32:22;;;;;;;7.32;4.45;;;;;;;18.52;66.99;100886.09;5031533;28;20079;-84
2023/07/27 00:34:49;;;;;;;8.35;4.57;;;;;;;18.43;67.13;100870.69;5030014;28;20021;-84
2023/07/27 00:37:17;;;;;;;6.88;4.75;;;;;;;18.41;68.53;100880.66;5030750;28;20066;-83
2023/07/27 00:39:43;;;;;;;7.53;4.72;;;;;;;18.46;68.65;100878.50;5025049;28;20541;-84
2023/07/27 00:42:08;;;;;;;7.80;4.90;;;;;;;18.47;67.83;100881.06;5023108;28;20175;-84
2023/07/27 00:44:33;;;;;;;7.00;4.38;;;;;;;18.31;67.50;100881.31;5040706;28;20030;-84
2023/07/27 00:46:59;;;;;;;6.45;4.70;;;;;;;18.10;67.73;100874.84;5028762;28;20025;-84
2023/07/27 00:49:24;;;;;;;7.93;4.55;;;;;;;17.95;68.37;100870.53;5025739;28;20029;-84
2023/07/27 00:51:50;;;;;;;7.57;4.75;;;;;;;17.78;69.86;100869.06;5029620;28;20503;-84
2023/07/27 00:54:16;;;;;;;8.98;4.43;;;;;;;17.82;70.62;100863.41;5017398;28;20443;-84
2023/07/27 00:56:42;;;;;;;8.02;4.65;;;;;;;17.92;69.67;100852.91;5034042;28;20025;-83
2023/07/27 00:59:07;;;;;;;6.85;4.60;;;;;;;18.02;70.16;100847.75;5026318;28;20035;-84
2023/07/27 01:01:34;;;;;;;7.20;4.70;;;;;;;18.02;69.90;100851.28;5019812;28;20047;-83
2023/07/27 01:04:00;;;;;;;7.28;4.55;;;;;;;18.03;69.64;100838.75;5027679;28;20031;-84
2023/07/27 01:06:25;;;;;;;8.40;5.18;;;;;;;18.05;70.35;100839.53;5023646;28;20599;-84
2023/07/27 01:08:52;;;;;;;7.38;4.80;;;;;;;17.96;71.03;100829.47;5017117;28;20034;-83
2023/07/27 01:11:26;;;;;;;7.60;4.70;;;;;;;17.94;69.95;100828.72;5034630;28;20287;-83
2023/07/27 01:13:59;;;;;;;7.97;4.85;;;;;;;18.01;70.44;100828.19;5023681;28;20079;-83
2023/07/27 01:16:37;;;;;;;7.38;4.55;;;;;;;18.01;69.73;100824.66;5024896;28;20413;-84
2023/07/27 01:19:16;;;;;;;8.57;4.97;;;;;;;17.95;70.80;100831.31;5019528;28;20060;-84
2023/07/27 01:21:48;;;;;;;6.88;5.10;;;;;;;17.86;71.38;100821.25;5022032;28;20485;-84
2023/07/27 01:24:42;;;;;;;8.40;5.50;;;;;;;17.95;70.69;100820.59;5023611;28;20377;-84
2023/07/27 01:27:15;;;;;;;7.70;5.38;;;;;;;17.86;71.16;100818.59;5017953;28;20045;-84
2023/07/27 01:30:17;;;;;;;6.53;5.18;;;;;;;17.89;70.28;100810.31;5023901;28;20117;-84
2023/07/27 01:32:46;;;;;;;9.40;5.50;;;;;;;17.76;71.38;100804.13;5028646;28;20021;-84
2023/07/27 01:35:16;;;;;;;7.20;5.20;;;;;;;17.63;72.36;100808.63;5025855;28;20033;-84
2023/07/27 01:37:44;;;;;;;7.60;5.10;;;;;;;17.58;73.44;100796.44;5022861;28;20522;-84
2023/07/27 01:40:13;;;;;;;6.68;5.15;;;;;;;17.60;72.80;100796.31;5028241;28;20026;-85
2023/07/27 01:42:40;;;;;;;7.13;5.10;;;;;;;17.57;73.25;100796.50;5014614;28;20296;-84
2023/07/27 01:45:06;;;;;;;6.47;4.95;;;;;;;17.72;72.77;100782.09;5014839;28;20018;-84
2023/07/27 01:47:32;;;;;;;6.93;4.97;;;;;;;17.79;72.02;100782.53;5025178;28;20038;-84
2023/07/27 01:49:59;;;;;;;8.07;4.82;;;;;;;17.76;71.78;100780.91;5024653;28;20107;-84
2023/07/27 01:52:26;;;;;;;7.15;4.93;;;;;;;17.76;72.28;100769.38;5027330;28;20083;-84
2023/07/27 01:54:55;;;;;;;9.90;5.88;;;;;;;17.68;73.01;100779.75;5021186;28;20030;-85
2023/07/27 01:57:21;;;;;;;9.15;5.25;;;;;;;17.71;73.46;100777.69;5024963;28;20459;-84
2023/07/27 01:59:47;;;;;;;6.75;5.40;;;;;;;17.36;74.18;100771.31;5029113;28;20030;-84
2023/07/27 02:02:14;;;;;;;7.95;5.55;;;;;;;17.34;75.47;100764.22;5040256;28;20403;-84
2023/07/27 02:04:39;;;;;;;6.95;5.28;;;;;;;17.32;75.64;100754.63;5022893;28;20034;-84
2023/07/27 02:07:05;;;;;;;6.60;5.40;;;;;;;17.29;74.86;100752.16;5023914;28;20037;-84
2023/07/27 02:09:30;;;;;;;6.93;5.15;;;;;;;17.50;73.78;100749.81;5025522;28;20658;-84
2023/07/27 02:12:01;;;;;;;6.80;5.30;;;;;;;17.48;74.69;100743.69;5023340;28;20064;-85
2023/07/27 02:14:40;;;;;;;6.95;5.10;;;;;;;17.41;75.18;100737.94;5038686;28;20024;-84
2023/07/27 02:17:12;;;;;;;9.02;5.68;;;;;;;17.28;75.65;100737.94;5033546;28;20018;-84
2023/07/27 02:19:42;;;;;;;8.13;5.85;;;;;;;17.30;74.94;100730.69;5027386;28;20050;-85
2023/07/27 02:22:09;;;;;;;8.35;5.65;;;;;;;17.23;76.73;100729.41;5031025;28;20477;-84
2023/07/27 02:24:35;;;;;;;7.57;5.90;;;;;;;17.18;76.33;100717.31;5019541;28;20030;-84
2023/07/27 02:27:00;;;;;;;9.23;5.75;;;;;;;17.18;76.85;100715.50;5030054;28;20504;-85
2023/07/27 02:29:25;;;;;;;7.95;5.43;;;;;;;17.23;75.90;100701.81;5028870;28;20036;-84
2023/07/27 02:31:50;;;;;;;9.45;5.80;;;;;;;17.22;76.05;100706.31;5020266;28;20024;-84
2023/07/27 02:34:16;;;;;;;6.70;5.25;;;;;;;17.16;76.13;100698.75;5034932;28;20067;-84
2023/07/27 02:36:41;;;;;;;7.95;5.40;;;;;;;17.22;75.68;100703.66;5025506;28;20479;-84
2023/07/27 02:39:07;;;;;;;8.68;5.32;;;;;;;17.10;76.17;100696.47;5024797;28;20025;-84
2023/07/27 02:41:32;;;;;;;6.53;5.00;;;;;;;17.15;75.94;100691.66;5023675;28;20046;-84
2023/07/27 02:43:57;;;;;;;6.43;4.95;;;;;;;17.05;75.94;100678.09;5026053;28;20033;-84
2023/07/27 02:46:22;;;;;;;9.68;5.53;;;;;;;17.03;76.26;100673.84;5023412;28;20030;-84
2023/07/27 02:48:48;;;;;;;9.23;5.57;;;;;;;17.04;76.76;100681.75;5031457;28;20147;-84
2023/07/27 02:51:13;;;;;;;7.38;5.18;;;;;;;17.04;77.04;100681.75;5026934;28;20033;-84
2023/07/27 02:53:38;;;;;;;9.25;6.68;;;;;;;16.98;78.29;100667.97;5025884;28;20018;-84
2023/07/27 02:56:05;;;;;;;9.75;5.57;;;;;;;16.94;76.81;100658.47;5030358;28;21243;-84
2023/07/27 02:58:30;;;;;;;9.15;5.97;;;;;;;16.96;78.14;100662.72;5035985;28;20095;-84
2023/07/27 03:00:58;;;;;;;7.82;5.55;;;;;;;16.95;77.78;100668.16;5022901;28;20026;-85
2023/07/27 03:03:23;;;;;;;8.95;5.57;;;;;;;16.97;77.91;100664.44;5014447;28;20024;-84
2023/07/27 03:05:59;;;;;;;6.90;4.88;;;;;;;16.99;77.02;100657.16;5027031;28;20026;-84
2023/07/27 03:08:26;;;;;;;7.35;5.93;;;;;;;16.93;77.95;100659.44;5021643;28;20384;-84
2023/07/27 03:10:51;;;;;;;10.20;5.75;;;;;;;16.80;78.87;100654.91;5032409;28;20025;-85
2023/07/27 03:13:16;;;;;;;7.97;5.93;;;;;;;16.71;79.59;100657.34;5019115;28;20026;-85
2023/07/27 03:15:42;;;;;;;9.35;6.10;;;;;;;16.74;79.63;100655.34;5025603;28;20022;-85
2023/07/27 03:18:07;;;;;;;9.70;5.80;;;;;;;16.71;79.94;100646.66;5029921;28;20026;-84
2023/07/27 03:20:40;;;;;;;9.90;6.45;;;;;;;16.62;80.89;100642.81;5030570;28;20029;-85
2023/07/27 03:23:05;;;;;;;8.48;5.93;;;;;;;16.52;80.74;100625.72;5026011;28;20128;-84
2023/07/27 03:25:33;;;;;;;8.68;5.88;;;;;;;16.47;81.72;100620.69;5028467;28;20039;-85
2023/07/27 03:27:58;;;;;;;9.68;6.15;;;;;;;16.38;81.28;100615.13;5030046;28;20021;-85
2023/07/27 03:30:23;;;;;;;7.78;5.80;;;;;;;16.38;81.48;100604.47;5031033;28;20033;-86
2023/07/27 03:32:48;;;;;;;8.75;5.95;;;;;;;16.42;81.51;100603.28;5035709;28;20124;-85
2023/07/27 03:35:14;;;;;;;12.48;6.70;;;;;;;16.32;81.82;100587.91;5023243;28;20381;-85
2023/07/27 03:37:39;;;;;;;9.20;6.55;;;;;;;16.28;81.78;100583.75;5023711;28;20019;-85
2023/07/27 03:40:06;;;;;;;11.27;7.78;;;;;;;16.26;83.27;100571.44;5031501;28;20024;-85
2023/07/27 03:42:31;;;;;;;9.23;6.72;;;;;;;16.24;83.18;100566.22;5032955;28;20054;-85
2023/07/27 03:44:56;;;;;;;11.30;7.05;;;;;;;16.23;83.54;100558.34;5023836;28;20037;-86
2023/07/27 03:47:21;;;;;;;8.63;5.85;;;;;;;16.26;83.36;100558.97;5015527;28;20030;-85
2023/07/27 03:49:47;;;;;;;8.90;5.78;;;;;;;16.22;83.08;100543.28;5029801;28;20033;-87
2023/07/27 03:52:12;;;;;;;7.80;5.95;;;;;;;16.23;83.67;100550.34;5033852;28;20161;-86
2023/07/27 03:54:37;;;;;;;9.27;6.18;;;;;;;16.26;83.33;100544.78;5023285;28;20092;-86
2023/07/27 03:57:03;;;;;;;8.38;5.53;;;;;;;16.18;83.19;100540.00;5026922;28;20519;-86
2023/07/27 03:59:28;;;;;;;8.27;6.18;;;;;;;16.19;84.32;100544.34;5021858;28;20064;-86
2023/07/27 04:01:53;;;;;;;6.32;5.30;;;;;;;16.26;84.16;100542.97;5025328;28;20032;-84
2023/07/27 04:04:18;;;;;;;8.65;5.88;;;;;;;16.22;83.75;100538.78;5013854;28;20478;-85
2023/07/27 04:06:45;;;;;;;8.13;5.78;;;;;;;16.18;84.21;100533.78;5019280;28;20033;-85
2023/07/27 04:09:10;;;;;;;7.03;5.22;;;;;;;16.20;84.00;100529.19;5019986;28;20028;-86
2023/07/27 04:11:35;;;;;;;8.10;5.28;;;;;;;16.25;83.93;100530.59;5027901;28;20021;-86
2023/07/27 04:14:00;;;;;;;8.77;5.60;;;;;;;16.28;83.72;100541.06;5025005;28;20389;-86
2023/07/27 04:16:26;;;;;;;9.00;5.20;;;;;;;16.36;83.35;100534.31;5012944;28;20075;-87
2023/07/27 04:18:51;;;;;;;7.13;4.85;;;;;;;16.32;82.95;100529.22;5015311;28;20412;-86
2023/07/27 04:21:16;;;;;;;7.70;4.53;;;;;;;16.27;84.11;100520.69;5026977;28;20025;-87
2023/07/27 04:23:41;;;;;;;7.43;5.32;;;;;;;16.22;85.03;100514.78;5023543;28;20026;-88
2023/07/27 04:26:07;;;;;;;7.10;5.03;;;;;;;16.32;84.21;100520.38;5024576;28;20049;-86
2023/07/27 04:28:32;;;;;;;5.63;4.30;;;;;;;16.38;83.71;100511.94;5026313;28;20485;-86
2023/07/27 04:30:57;;;;;;;5.80;4.40;;;;;;;16.39;84.26;100502.97;5021054;28;20021;-86
2023/07/27 04:33:23;;;;;;;7.30;4.82;;;;;;;16.33;84.85;100498.06;5019481;28;20295;-86
2023/07/27 04:35:48;;;;;;;7.07;4.18;;;;;;;16.36;84.95;100497.81;5022394;28;20029;-86
2023/07/27 04:38:13;;;;;;;6.80;4.40;;;;;;;16.27;85.32;100495.78;5017650;28;20025;-86
2023/07/27 04:40:39;;;;;;;5.15;4.00;;;;;;;16.27;85.55;100488.69;5030499;28;20373;-87
2023/07/27 04:43:04;;;;;;;4.80;3.78;;;;;;;16.32;84.58;100486.53;5012472;28;20087;-86
2023/07/27 04:45:29;;;;;;;6.57;4.20;;;;;;;16.31;85.85;100478.63;5027033;28;20026;-87
2023/07/27 04:47:54;;;;;;;6.20;3.80;;;;;;;16.40;84.81;100477.13;5020609;28;20071;-86
2023/07/27 04:50:20;;;;;;;5.72;3.60;;;;;;;16.26;85.53;100470.94;5032745;28;20023;-86
2023/07/27 04:52:45;;;;;;;4.05;3.65;;;;;;;16.32;85.15;100464.34;5026645;28;20032;-86
2023/07/27 04:55:10;;;;;;;4.10;3.45;;;;;;;16.22;85.61;100472.09;5030365;28;20025;-86
2023/07/27 04:57:35;;;;;;;5.60;3.33;;;;;;;16.17;86.05;100460.91;5012599;28;20029;-87
2023/07/27 05:00:01;;;;;;;4.70;3.63;;;;;;;16.14;86.23;100474.47;5025332;28;20028;-87
2023/07/27 05:02:26;;;;;;;5.60;3.88;;;;;;;16.07;87.57;100462.50;5025234;28;20473;-87
2023/07/27 05:04:51;;;;;;;5.95;4.35;;;;;;;16.20;86.97;100465.19;5020763;28;20036;-86
2023/07/27 05:07:18;;;;;;;6.43;3.63;;;;;;;16.10;87.25;100470.31;5020395;28;20542;-87
2023/07/27 05:09:43;;;;;;;4.28;3.20;;;;;;;16.16;87.08;100453.03;5029734;28;20570;-87
2023/07/27 05:12:09;;;;;;;3.97;3.25;;;;;;;16.27;86.66;100456.66;5030157;28;20044;-87
2023/07/27 05:14:34;;;;;;;4.07;3.28;;;;;;;16.13;87.93;100456.75;5017836;28;20038;-87
2023/07/27 05:16:59;;;;;;;4.90;3.20;;;;;;;16.17;87.69;100444.91;5016525;28;20010;-86
2023/07/27 05:19:25;;;;;;;4.00;3.40;;;;;;;16.21;87.14;100435.72;5014316;28;20361;-87
2023/07/27 05:21:50;;;;;;;4.95;3.58;;;;;;;16.14;88.29;100433.63;5019977;28;20022;-87
2023/07/27 05:24:15;;;;;;;5.78;3.25;;;;;;;16.19;88.15;100437.66;5029694;28;20076;-87
2023/07/27 05:26:41;;;;;;;4.38;3.10;;;;;;;16.22;88.05;100436.56;5029782;28;20477;-87
2023/07/27 05:29:07;;;;;;;3.63;3.03;;;;;;;16.22;87.87;100437.44;5020388;28;20068;-86
2023/07/27 05:31:32;;;;;;;4.35;3.20;;;;;;;16.24;88.22;100430.19;5019989;28;20064;-86
2023/07/27 05:33:57;;;;;;;5.07;3.10;;;;;;;16.27;87.48;100419.31;5024435;28;20068;-86
2023/07/27 05:36:22;;;;;;;3.55;3.25;;;;;;;16.32;87.96;100422.50;5019229;28;20025;-87
2023/07/27 05:38:48;;;;;;;3.72;2.67;;;;;;;16.34;87.81;100427.72;5026945;28;20384;-87
2023/07/27 05:41:13;;;;;;;3.35;3.03;;;;;;;16.35;88.02;100423.25;5017782;28;20121;-87
2023/07/27 05:43:38;;;;;;;4.15;2.80;;;;;;;16.32;88.36;100421.66;5024954;28;20397;-87
2023/07/27 05:46:03;;;;;;;3.90;2.88;;;;;;;16.40;88.54;100415.75;5024931;28;20025;-87
2023/07/27 05:48:30;;;;;;;3.78;3.20;;;;;;;16.38;88.64;100421.22;5028874;28;20033;-86
2023/07/27 05:50:55;;;;;;;3.03;2.72;;;;;;;16.39;88.95;100403.38;5031023;28;20036;-87
2023/07/27 05:53:21;;;;;;;3.97;3.05;;;;;;;16.48;88.87;100416.06;5039437;28;20025;-87
2023/07/27 05:55:46;;;;;;;3.35;2.65;;;;;;;16.51;88.69;100403.38;5028858;28;20021;-87
2023/07/27 05:58:11;;;;;;;3.63;2.90;;;;;;;16.55;88.72;100407.53;5045447;28;20440;-87
2023/07/27 06:00:37;;;;;;;4.00;2.90;;;;;;;16.51;89.39;100407.84;5024003;28;20037;-87
2023/07/27 06:03:02;;;;;;;2.85;2.60;;;;;;;16.55;89.11;100403.97;5030348;28;20022;-88
2023/07/27 06:05:27;;;;;;;2.80;2.60;;;;;;;16.59;88.97;100400.13;5020575;28;20432;-87
2023/07/27 06:07:53;;;;;;;3.50;2.67;;;;;;;16.53;90.08;100405.91;5017276;28;20041;-87
2023/07/27 06:10:18;;;;;;;2.50;2.30;;;;;;;16.55;89.54;100401.31;5033917;28;20028;-87
2023/07/27 06:12:43;;;;;;;2.75;2.55;;;;;;;16.60;89.63;100404.53;5032179;28;20031;-87
2023/07/27 06:15:09;;;;;;;2.30;2.10;;;;;;;16.66;89.42;100401.41;5021285;28;20021;-86
2023/07/27 06:17:35;;;;;;;2.42;2.22;;;;;;;16.83;89.35;100400.19;5017521;28;20037;-86
2023/07/27 06:20:00;;;;;;;3.00;2.53;;;;;;;16.87;90.03;100406.16;5026177;28;20259;-86
2023/07/27 06:22:26;;;;;;;3.00;2.20;;;;;;;16.82;89.75;100399.34;5038945;28;20075;-87
2023/07/27 06:24:51;;;;;;;2.47;2.28;;;;;;;16.81;89.92;100381.63;5015905;28;20059;-87
2023/07/27 06:27:16;;;;;;;3.08;2.60;;;;;;;16.89;89.54;100398.91;5026364;28;20030;-87
2023/07/27 06:29:42;;;;;;;3.33;2.40;;;;;;;16.98;89.48;100401.75;5025933;28;20451;-88
2023/07/27 06:32:07;;;;;;;2.83;2.60;;;;;;;17.02;88.82;100389.00;5023013;28;20032;-89
2023/07/27 06:34:32;;;;;;;2.72;2.50;;;;;;;17.09;89.25;100391.13;5025788;28;20380;-87
2023/07/27 06:36:58;;;;;;;4.20;2.88;;;;;;;17.09;89.48;100391.13;5022747;28;20112;-87
2023/07/27 06:39:23;;;;;;;2.72;2.53;;;;;;;17.16;89.98;100379.97;5027022;28;20025;-87
2023/07/27 06:41:48;;;;;;;2.67;2.47;;;;;;;17.34;88.83;100375.91;5023646;28;20421;-86
2023/07/27 06:44:13;;;;;;;2.33;2.13;;;;;;;17.40;88.05;100378.13;5026419;28;20048;-87
2023/07/27 06:46:39;;;;;;;3.13;2.40;;;;;;;17.38;88.68;100371.19;5034187;28;20511;-86
2023/07/27 06:49:04;;;;;;;2.40;2.20;;;;;;;17.34;88.59;100382.09;5017973;28;20088;-88
2023/07/27 06:51:30;;;;;;;2.10;2.00;;;;;;;17.30;89.53;100377.13;5015660;28;20038;-87
2023/07/27 06:53:55;;;;;;;2.33;1.63;;;;;;;17.31;89.49;100374.34;5018734;28;20024;-87
2023/07/27 06:56:20;;;;;;;2.20;2.00;;;;;;;17.33;89.48;100382.22;5035687;28;20141;-87
2023/07/27 06:58:46;;;;;;;2.22;2.03;;;;;;;17.36;89.22;100376.66;5029428;28;20025;-87
2023/07/27 07:01:11;;;;;;;3.22;2.28;;;;;;;17.43;89.09;100379.69;5044606;28;20028;-87
2023/07/27 07:03:37;;;;;;;2.30;2.10;;;;;;;17.46;89.60;100377.66;5015170;28;20045;-87
2023/07/27 07:06:02;;;;;;;2.53;2.17;;;;;;;17.44;89.43;100374.25;5023957;28;20414;-87
2023/07/27 07:08:28;;;;;;;2.65;2.45;;;;;;;17.49;89.26;100368.56;5030806;28;20030;-87
2023/07/27 07:10:53;;;;;;;2.63;2.42;;;;;;;17.55;89.10;100370.75;5026899;28;20032;-88
2023/07/27 07:13:18;;;;;;;2.30;2.10;;;;;;;17.61;89.69;100378.31;5022560;28;20018;-88
2023/07/27 07:15:45;;;;;;;2.75;2.22;;;;;;;17.60;89.33;100376.59;5023737;28;20037;-88
2023/07/27 07:18:10;;;;;;;2.60;2.40;;;;;;;17.59;89.67;100375.75;5023520;28;20510;-87
2023/07/27 07:20:36;;;;;;;4.20;2.67;;;;;;;17.56;90.23;100377.81;5027600;28;20028;-87
2023/07/27 07:23:02;;;;;;;3.78;2.45;;;;;;;17.55;90.37;100376.09;5019490;28;20066;-88
2023/07/27 07:25:27;;;;;;;2.78;2.58;;;;;;;17.57;90.15;100379.50;5032961;28;20053;-85
2023/07/27 07:27:52;;;;;;;2.65;2.28;;;;;;;17.62;90.06;100381.81;5027052;28;20477;-87
2023/07/27 07:30:17;;;;;;;2.80;2.58;;;;;;;17.67;90.35;100369.78;5031191;28;20036;-87
2023/07/27 07:32:43;;;;;;;3.25;2.88;;;;;;;17.71;89.82;100373.09;5013616;28;20065;-88
2023/07/27 07:35:08;;;;;;;3.28;2.70;;;;;;;17.77;89.79;100365.50;5022863;28;20021;-89
2023/07/27 07:37:33;;;;;;;2.85;2.65;;;;;;;17.84;89.93;100374.72;5023836;28;20057;-88
2023/07/27 07:39:59;;;;;;;2.97;2.70;;;;;;;17.91;90.09;100364.41;5027253;28;20025;-89
2023/07/27 07:42:24;;;;;;;3.03;2.80;;;;;;;18.08;89.50;100357.72;5031918;28;20095;-87
2023/07/27 07:44:49;;;;;;;2.80;2.50;;;;;;;18.27;89.26;100357.09;5017781;28;20481;-89
2023/07/27 07:47:15;;;;;;;2.25;2.03;;;;;;;18.35;87.79;100358.19;5026282;28;20029;-89
2023/07/27 07:49:40;;;;;;;2.00;1.80;;;;;;;18.44;87.43;100358.44;5021559;28;20049;-88
2023/07/27 07:52:05;;;;;;;3.70;2.13;;;;;;;18.45;87.61;100357.47;5019137;28;20477;-89
2023/07/27 07:54:31;;;;;;;2.38;2.17;;;;;;;18.45;86.96;100357.47;5021253;28;20033;-89
2023/07/27 07:56:56;;;;;;;2.40;2.20;;;;;;;18.49;87.06;100351.72;5029454;28;20045;-89
2023/07/27 07:59:23;;;;;;;3.50;2.00;;;;;;;18.46;87.39;100359.16;5021713;28;20033;-89
2023/07/27 08:01:49;;;;;;;2.28;2.08;;;;;;;18.45;87.66;100352.09;5025237;28;20615;-87
2023/07/27 08:04:15;;;;;;;2.15;1.95;;;;;;;18.44;87.05;100347.75;5022205;28;20112;-88
2023/07/27 08:06:40;;;;;;;1.65;1.55;;;;;;;18.51;87.51;100356.94;5023027;28;20120;-88
2023/07/27 08:09:06;;;;;;;3.88;2.17;;;;;;;18.54;87.26;100348.69;5023822;28;20384;-88
2023/07/27 08:11:32;;;;;;;1.50;1.40;;;;;;;18.54;86.83;100346.84;5032644;28;20082;-88
2023/07/27 08:14:00;;;;;;;1.83;1.58;;;;;;;18.52;86.94;100354.19;5026268;28;20029;-88
2023/07/27 08:16:25;;;;;;;3.78;1.73;;;;;;;18.48;87.75;100344.69;5021478;28;20025;-89
2023/07/27 08:18:50;;;;;;;2.35;1.60;;;;;;;18.57;87.06;100345.78;5018735;28;20021;-90
2023/07/27 08:21:16;;;;;;;2.50;1.80;;;;;;;18.68;87.21;100350.25;5022135;28;20025;-90
2023/07/27 08:23:41;;;;;;;2.55;2.00;;;;;;;18.78;87.87;100341.34;5019442;28;20021;-88
2023/07/27 08:26:08;;;;;;;1.98;1.70;;;;;;;18.79;87.21;100343.06;5025646;28;20503;-87
2023/07/27 08:28:33;;;;;;;1.90;1.70;;;;;;;18.77;86.39;100344.16;5020658;28;20025;-89
2023/07/27 08:31:02;;;;;;;2.53;1.70;;;;;;;18.81;87.29;100335.75;5024282;28;20026;-89
2023/07/27 08:33:27;;;;;;;2.03;1.88;;;;;;;18.89;88.66;100339.63;5023928;28;20026;-87
2023/07/27 08:35:52;;;;;;;1.70;1.60;;;;;;;19.03;86.27;100337.50;5031852;28;20434;-90
2023/07/27 08:38:18;;;;;;;1.90;1.80;;;;;;;19.20;86.65;100341.44;5026822;28;20037;-89
2023/07/27 08:40:54;;;;;;;1.80;1.70;;;;;;;19.32;85.68;100343.09;5045229;28;20047;-90
2023/07/27 08:43:19;;;;;;;1.73;1.63;;;;;;;19.33;83.38;100335.88;5031269;28;20068;-89
2023/07/27 08:45:45;;;;;;;2.20;2.00;;;;;;;19.45;84.46;100337.53;5027827;28;20068;-89
2023/07/27 08:48:12;;;;;;;2.40;2.30;;;;;;;19.41;84.72;100337.94;5012664;28;20551;-90
2023/07/27 08:50:38;;;;;;;1.95;1.83;;;;;;;19.42;83.97;100335.09;5026508;28;20121;-89
2023/07/27 08:53:03;;;;;;;2.40;2.20;;;;;;;19.57;84.26;100332.94;5037383;28;20016;-87
2023/07/27 08:55:29;;;;;;;2.78;2.28;;;;;;;19.76;84.04;100333.06;5023731;28;20040;-88
2023/07/27 08:57:54;;;;;;;2.38;2.20;;;;;;;19.83;83.57;100328.06;5039952;28;20021;-87
2023/07/27 09:00:19;;;;;;;1.50;1.40;;;;;;;19.90;82.58;100336.41;5019362;28;20040;-88
2023/07/27 09:02:45;;;;;;;1.73;1.63;;;;;;;19.81;81.71;100328.16;5039692;28;20051;-87
2023/07/27 09:05:12;;;;;;;1.90;1.80;;;;;;;19.80;83.04;100330.97;5029517;28;20024;-88
2023/07/27 09:07:38;;;;;;;1.95;1.85;;;;;;;19.72;83.43;100347.72;5024740;28;20049;-87
2023/07/27 09:10:07;;;;;;;3.35;1.75;;;;;;;19.65;83.78;100330.50;5023556;28;20065;-88
2023/07/27 09:12:32;;;;;;;2.28;1.80;;;;;;;19.70;83.56;100327.41;5022781;28;20036;-88
2023/07/27 09:14:58;;;;;;;1.83;1.73;;;;;;;19.71;82.83;100332.63;5021730;28;20025;-87
2023/07/27 09:17:23;;;;;;;1.60;1.50;;;;;;;19.80;84.33;100329.16;5027733;28;20025;-88
2023/07/27 09:19:50;;;;;;;2.00;1.90;;;;;;;19.81;82.89;100332.69;5037112;28;20477;-87
2023/07/27 09:22:15;;;;;;;1.95;1.50;;;;;;;19.78;82.58;100330.28;5020234;28;20116;-87
2023/07/27 09:24:41;;;;;;;1.77;1.67;;;;;;;19.84;82.86;100327.91;5028389;28;20116;-88
2023/07/27 09:27:13;;;;;;;1.60;1.50;;;;;;;19.90;82.41;100325.66;5036222;28;20022;-86
2023/07/27 09:29:40;;;;;;;1.75;1.65;;;;;;;20.06;82.35;100331.41;5036114;28;20155;-87
2023/07/27 09:32:08;;;;;;;1.90;1.60;;;;;;;20.09;83.11;100325.75;5023012;28;20018;-87
2023/07/27 09:34:33;;;;;;;1.40;1.30;;;;;;;20.12;82.76;100326.34;5023348;28;20503;-87
2023/07/27 09:37:04;;;;;;;1.60;1.50;;;;;;;20.22;82.24;100325.53;5033707;28;20018;-87
2023/07/27 09:39:33;;;;;;;1.67;1.58;;;;;;;20.20;82.82;100325.66;5028656;28;20649;-87
2023/07/27 09:41:58;;;;;;;2.00;1.80;;;;;;;20.14;81.92;100323.50;5028089;28;20124;-87
2023/07/27 09:44:24;;;;;;;2.05;1.70;;;;;;;20.09;82.54;100326.59;5023704;28;20516;-87
2023/07/27 09:46:50;;;;;;;3.15;1.40;;;;;;;19.93;82.81;100328.09;5026511;28;20030;-86
2023/07/27 09:49:16;;;;;;;2.45;1.30;;;;;;;20.00;82.37;100318.50;5032659;28;20378;-87
2023/07/27 09:51:41;;;;;;;1.10;1.10;;;;;;;20.11;81.87;100321.94;5037067;28;20499;-87
2023/07/27 09:54:07;;;;;;;2.00;1.65;;;;;;;20.19;83.09;100325.78;5031245;28;20029;-87
2023/07/27 09:56:33;;;;;;;1.58;1.48;;;;;;;20.19;81.32;100329.34;5029569;28;20037;-87
2023/07/27 09:58:59;;;;;;;1.35;1.25;;;;;;;20.03;82.16;100304.81;5036884;28;20021;-87
2023/07/27 10:01:25;;;;;;;1.30;1.20;;;;;;;19.83;83.08;100326.22;5028327;28;20087;-87
2023/07/27 10:03:52;;;;;;;1.45;1.35;;;;;;;19.90;82.88;100326.50;5018577;28;20057;-87
2023/07/27 10:06:17;;;;;;;1.48;1.20;;;;;;;19.99;81.36;100324.88;5038757;28;20032;-87
2023/07/27 10:08:44;;;;;;;1.45;1.35;;;;;;;20.04;82.56;100333.34;5018894;28;20477;-86
2023/07/27 10:11:10;;;;;;;2.22;1.50;;;;;;;20.07;81.55;100327.72;5017600;28;20028;-86
2023/07/27 10:13:41;;;;;;;1.40;1.30;;;;;;;20.09;82.51;100328.44;5014964;28;20029;-87
2023/07/27 10:16:16;;;;;;;1.38;1.23;;;;;;;20.27;81.80;100337.53;5030200;28;20022;-87
2023/07/27 10:18:46;;;;;;;2.45;1.65;;;;;;;20.50;81.19;100329.31;5020200;28;20492;-87
2023/07/27 10:21:22;;;;;;;1.67;1.58;;;;;;;20.52;81.69;100333.56;5017952;28;20026;-87
2023/07/27 10:23:58;;;;;;;1.65;1.55;;;;;;;20.53;80.77;100329.03;5019603;28;20419;-86
2023/07/27 10:26:51;;;;;;;1.73;1.63;;;;;;;20.43;81.48;100328.13;5024365;28;20021;-86
2023/07/27 10:29:19;;;;;;;;;;;;;;;20.52;81.25;100336.25;5024820;28;20026;-87
2023/07/27 10:31:58;;;;;;;2.05;1.27;;;;;;;20.32;81.63;100327.22;5023983;28;20404;-87
2023/07/27 10:34:25;;;;;;;1.27;1.00;;;;;;;20.15;82.32;100333.28;5036011;28;20022;-88
2023/07/27 10:36:58;;;;;;;1.23;1.23;;;;;;;20.27;82.06;100334.84;5030978;28;20033;-87
2023/07/27 10:39:44;;;;;;;1.10;1.10;;;;;;;20.36;81.74;100333.19;5025439;28;20033;-87
2023/07/27 10:42:23;;;;;;;1.00;1.00;;;;;;;20.26;82.30;100338.53;5020847;28;20128;-86
2023/07/27 10:44:50;;;;;;;1.52;1.40;;;;;;;20.28;82.56;100338.38;5015656;28;20106;-86
2023/07/27 10:47:46;;;;;;;1.48;1.38;;;;;;;20.28;82.67;100328.50;5023709;28;20292;-86
2023/07/27 10:50:13;;;;;;;2.13;1.33;;;;;;;20.31;81.32;100333.59;5014767;28;20042;-87
2023/07/27 10:52:39;;;;;;;1.23;1.23;;;;;;;20.32;82.76;100337.97;5025871;28;20029;-86
2023/07/27 10:55:05;;;;;;;2.65;1.40;;;;;;;20.32;82.06;100337.97;5026436;28;20037;-87
2023/07/27 10:57:32;;;;;;;1.38;1.27;;;;;;;20.43;82.24;100338.88;5031814;28;20044;-86
2023/07/27 10:59:58;;;;;;;1.92;1.23;;;;;;;20.35;81.73;100332.34;5025425;28;20032;-87
2023/07/27 11:02:25;;;;;;;1.38;1.27;;;;;;;20.21;82.26;100327.34;5020447;28;20026;-87
2023/07/27 11:04:51;;;;;;;1.20;1.20;;;;;;;20.21;83.12;100337.25;5023843;28;20026;-87
2023/07/27 11:07:34;;;;;;;1.40;1.30;;;;;;;20.38;81.90;100331.22;5015359;28;20081;-86
2023/07/27 11:10:03;;;;;;;1.52;1.27;;;;;;;20.40;81.56;100340.00;5020267;28;20104;-86
2023/07/27 11:12:29;;;;;;;1.25;1.23;;;;;;;20.48;82.63;100339.34;5023976;28;20041;-87
2023/07/27 11:14:55;;;;;;;1.90;1.42;;;;;;;20.38;82.56;100336.59;5025947;28;20029;-86
2023/07/27 11:17:21;;;;;;;1.20;1.20;;;;;;;20.37;82.24;100335.72;5027203;28;20028;-87
2023/07/27 11:19:47;;;;;;;1.02;1.02;;;;;;;20.27;82.85;100329.47;5045137;28;20041;-87
2023/07/27 11:22:12;;;;;;;1.10;1.10;;;;;;;20.14;83.07;100331.56;5027521;28;20076;-87